Time;durP1;ratioP1;P1;durP2;ratioP2;P2;SDS_P1;SDS_P2;PMS_P1;PMS_P2;Temp;Humidity;BMP_temperature;BMP_pressure;BME280_temperature;BME280_humidity;BME280_pressure;Samples;Min_cycle;Max_cycle;Signal;HPM_P1;HPM_P2
2022/02/10 00:03:43;;;;;;;50.33;23.02;;;;;;;7.99;92.18;102051.22;5031695;28;20121;-45
2022/02/10 00:06:32;;;;;;;61.58;23.83;;;;;;;7.98;92.38;102046.88;5033107;28;20440;-45
2022/02/10 00:22:31;;;;;;;54.08;21.08;;;;;;;7.82;92.65;102031.28;5051905;28;20409;-46
2022/02/10 00:35:46;;;;;;;50.28;20.70;;;;;;;7.75;94.17;102005.16;5034813;28;20106;-46
2022/02/10 00:38:11;;;;;;;48.33;19.77;;;;;;;7.74;93.90;102008.81;5040899;28;20099;-46
2022/02/10 00:40:37;;;;;;;46.38;19.20;;;;;;;7.67;93.69;102004.00;5055258;28;20033;-47
2022/02/10 00:43:05;;;;;;;46.63;19.67;;;;;;;7.61;94.23;101998.31;5045056;28;20029;-47
2022/02/10 00:45:32;;;;;;;49.28;19.27;;;;;;;7.63;94.24;101989.16;5046402;28;20029;-45
2022/02/10 00:48:05;;;;;;;47.47;19.50;;;;;;;7.56;94.48;101997.88;5034828;28;20044;-48
2022/02/10 00:50:32;;;;;;;43.72;19.02;;;;;;;7.55;94.91;101994.34;5035117;28;20282;-45
2022/02/10 00:53:04;;;;;;;44.67;18.53;;;;;;;7.51;95.19;101995.59;5053975;28;20025;-46
2022/02/10 00:58:08;;;;;;;49.65;20.15;;;;;;;7.48;95.96;101985.16;3828218;22;20110;-78
2022/02/10 01:24:27;;;;;;;65.72;24.15;;;;;;;7.36;97.16;101964.78;5012473;28;20064;-76
2022/02/10 01:30:26;;;;;;;74.68;27.42;;;;;;;7.35;98.35;101941.69;5017868;28;20082;-77
2022/02/10 01:32:55;;;;;;;75.53;26.80;;;;;;;7.38;98.11;101936.06;5017367;28;20034;-77
2022/02/10 01:35:23;;;;;;;72.80;27.00;;;;;;;7.37;98.14;101943.25;5016905;28;20034;-77
2022/02/10 01:37:49;;;;;;;78.20;28.95;;;;;;;7.36;98.56;101933.50;5000597;28;20064;-78
2022/02/10 02:04:13;;;;;;;83.00;27.15;;;;;;;7.28;100.00;101903.03;4983679;28;20050;-80
2022/02/10 02:06:45;;;;;;;85.03;26.95;;;;;;;7.32;100.00;101893.72;4990316;28;20030;-81
2022/02/10 02:09:14;;;;;;;83.00;24.90;;;;;;;7.28;100.00;101897.66;4990962;28;20042;-80
2022/02/10 02:11:40;;;;;;;73.93;25.00;;;;;;;7.29;100.00;101894.00;4988784;28;20116;-81
2022/02/10 02:14:07;;;;;;;83.13;27.83;;;;;;;7.30;100.00;101883.16;4986544;28;20423;-80
2022/02/10 02:16:33;;;;;;;88.90;28.05;;;;;;;7.34;100.00;101891.75;4973356;28;20054;-80
2022/02/10 02:18:58;;;;;;;86.72;26.40;;;;;;;7.26;100.00;101895.97;4998379;28;20104;-80
2022/02/10 02:21:24;;;;;;;77.28;26.35;;;;;;;7.29;100.00;101894.00;4984386;28;20039;-80
2022/02/10 02:23:49;;;;;;;86.38;25.38;;;;;;;7.25;100.00;101894.28;4984007;28;20027;-80
2022/02/10 02:26:20;;;;;;;79.63;25.77;;;;;;;7.20;100.00;101885.78;4975199;28;20026;-79
2022/02/10 02:28:50;;;;;;;84.30;26.83;;;;;;;7.25;100.00;101883.56;4965186;28;20043;-80
2022/02/10 02:31:23;;;;;;;79.97;26.27;;;;;;;7.28;100.00;101876.25;4974897;28;20031;-79
2022/02/10 02:34:13;;;;;;;88.07;27.45;;;;;;;7.31;100.00;101875.97;4976564;28;20042;-79
2022/02/10 03:06:38;;;;;;;102.68;32.75;;;;;;;7.22;100.00;101840.16;4980327;28;20062;-79
2022/02/10 03:09:08;;;;;;;102.85;32.00;;;;;;;7.23;100.00;101837.31;4978301;28;20109;-78
2022/02/10 03:11:36;;;;;;;93.00;30.58;;;;;;;7.23;100.00;101826.63;4987618;28;20141;-78
2022/02/10 03:14:08;;;;;;;105.13;34.75;;;;;;;7.24;100.00;101825.66;4980913;28;20034;-78
2022/02/10 03:19:36;;;;;;;102.85;32.55;;;;;;;7.28;100.00;101822.69;4981428;28;20038;-78
2022/02/10 04:03:26;;;;;;;99.18;34.30;;;;;;;7.52;100.00;101831.22;4987068;28;20405;-80
2022/02/10 04:11:56;;;;;;;78.30;26.38;;;;;;;7.57;100.00;101836.16;4956191;29;20227;-77
2022/02/10 04:14:31;;;;;;;74.10;26.23;;;;;;;7.58;100.00;101846.75;4955206;29;20039;-76
2022/02/10 04:17:45;;;;;;;44.38;16.05;;;;;;;7.51;100.00;101842.91;4977839;28;20446;-76
2022/02/10 04:25:38;;;;;;;;;;;;;;;7.30;100.00;101840.31;4978653;28;20125;-76
2022/02/10 04:28:04;;;;;;;8.63;4.47;;;;;;;7.31;100.00;101841.16;4976728;28;19914;-75
2022/02/10 05:18:52;;;;;;;6.53;4.28;;;;;;;6.94;100.00;101836.38;4990891;28;20447;-76
2022/02/10 05:33:57;;;;;;;9.95;5.38;;;;;;;7.02;99.97;101834.72;4976738;28;20385;-76
2022/02/10 05:36:26;;;;;;;6.70;4.50;;;;;;;7.04;100.00;101831.91;4976211;28;20538;-76
2022/02/10 05:39:37;;;;;;;6.65;4.40;;;;;;;7.00;99.86;101838.50;4976044;28;20482;-77
2022/02/10 05:44:35;;;;;;;4.05;3.08;;;;;;;6.91;99.82;101842.00;4976068;28;20182;-75
2022/02/10 06:02:33;;;;;;;10.60;4.07;;;;;;;6.71;99.47;101852.56;4990288;28;20473;-77
2022/02/10 06:51:12;;;;;;;14.70;2.90;;;;;;;6.31;97.84;101882.69;4993736;28;20041;-78
2022/02/10 07:07:39;;;;;;;17.90;2.90;;;;;;;6.36;97.08;101891.19;4974270;28;20062;-77
2022/02/10 07:12:49;;;;;;;;;;;;;;;6.36;97.21;101885.84;4974850;28;20062;-77
2022/02/10 07:50:50;;;;;;;13.70;3.70;;;;;;;6.54;95.09;101915.53;4975093;28;20127;-77
2022/02/10 07:56:27;;;;;;;12.50;3.63;;;;;;;6.60;94.72;101924.88;4974603;28;20166;-76
2022/02/10 08:04:55;;;;;;;14.57;3.38;;;;;;;6.67;93.32;101942.09;4974018;28;20097;-76
2022/02/10 08:57:22;;;;;;;10.60;3.13;;;;;;;7.56;87.81;101973.78;4977269;28;20064;-77
2022/02/10 09:04:53;;;;;;;12.68;2.75;;;;;;;7.65;88.55;101981.00;4975431;28;20049;-76
2022/02/10 09:16:35;;;;;;;13.10;3.63;;;;;;;8.34;89.67;101988.22;4976922;28;20046;-76
2022/02/10 09:24:26;;;;;;;9.75;3.20;;;;;;;8.90;86.25;101984.03;4966290;28;20046;-76
2022/02/10 09:48:19;;;;;;;8.93;3.78;;;;;;;8.47;87.57;102001.41;4995363;28;20410;-76
2022/02/10 09:58:58;;;;;;;16.67;4.82;;;;;;;8.33;87.51;102010.69;4994943;28;20406;-76
2022/02/10 10:01:14;;;;;;;12.95;5.07;;;;;;;8.30;88.53;102019.00;4981184;28;20042;-76
2022/02/10 10:03:44;;;;;;;12.32;4.72;;;;;;;8.31;88.10;102015.34;4975860;28;20415;-76
2022/02/10 10:06:21;;;;;;;14.32;4.55;;;;;;;8.26;87.62;102017.56;4975864;28;20027;-76
2022/02/10 10:09:08;;;;;;;14.77;4.68;;;;;;;8.26;88.47;102023.78;4993315;28;20069;-76
2022/02/10 10:14:39;;;;;;;21.30;4.72;;;;;;;8.24;88.87;102019.53;4971978;28;20084;-76
2022/02/10 10:20:26;;;;;;;15.30;5.60;;;;;;;8.29;88.09;102028.91;4976152;28;20097;-77
2022/02/10 10:59:18;;;;;;;21.35;2.40;;;;;;;9.65;73.21;102046.78;4935257;29;20211;-72
2022/02/10 11:06:13;;;;;;;17.67;2.13;;;;;;;9.17;71.95;102048.59;4967833;28;20449;-72
2022/02/10 11:36:27;;;;;;;21.52;3.50;;;;;;;9.37;74.12;102046.75;4975385;28;20065;-72
2022/02/10 11:39:00;;;;;;;20.88;2.95;;;;;;;8.77;75.18;102044.25;4973893;28;20040;-73
2022/02/10 11:43:48;;;;;;;19.35;2.72;;;;;;;8.72;78.41;102045.66;4976340;28;20098;-72
2022/02/10 12:33:18;;;;;;;18.55;2.47;;;;;;;9.53;65.88;102056.00;4986294;28;20057;-75
2022/02/10 14:09:06;;;;;;;17.20;2.22;;;;;;;8.49;67.70;102023.59;4961436;28;20105;-75
2022/02/10 14:09:11;;;;;;;15.25;2.80;;;;;;;8.39;67.13;102028.94;4974952;28;20062;-76
2022/02/10 14:12:27;;;;;;;16.38;2.10;;;;;;;8.33;66.15;102021.41;4976261;28;20030;-76
2022/02/10 14:17:00;;;;;;;15.07;2.17;;;;;;;8.38;65.60;102021.84;4976919;28;20130;-74
2022/02/10 14:19:38;;;;;;;15.07;2.08;;;;;;;8.43;66.62;102025.00;4976345;28;20026;-76
2022/02/10 14:27:15;;;;;;;24.83;2.95;;;;;;;8.52;65.78;102039.41;4974263;28;20037;-78
2022/02/10 14:29:42;;;;;;;15.13;2.13;;;;;;;8.37;66.20;102033.53;4958065;28;20035;-77
2022/02/10 14:32:09;;;;;;;20.42;2.88;;;;;;;8.45;67.32;102038.25;4976217;28;20383;-77
2022/02/10 14:34:34;;;;;;;13.38;2.97;;;;;;;8.39;66.66;102034.28;4975818;28;20378;-75
2022/02/10 15:29:05;;;;;;;17.85;2.47;;;;;;;7.60;69.03;102050.19;4974248;28;20391;-76
2022/02/10 15:29:23;;;;;;;18.88;2.47;;;;;;;7.54;68.82;102050.75;4973687;28;20081;-75
2022/02/10 15:50:36;;;;;;;12.98;2.25;;;;;;;7.23;67.85;102035.47;4973764;28;20098;-78
2022/02/10 16:17:04;;;;;;;;;;;;;;;6.89;69.89;102026.75;4973540;28;20559;-77
2022/02/10 16:19:31;;;;;;;14.45;2.05;;;;;;;6.94;69.96;102029.91;4973203;28;19914;-75
2022/02/10 16:25:00;;;;;;;11.57;1.83;;;;;;;6.84;68.98;102020.09;4973714;28;20046;-76
2022/02/10 16:27:28;;;;;;;9.30;2.47;;;;;;;6.86;68.86;102020.81;4974306;28;20102;-77
2022/02/10 16:30:00;;;;;;;18.80;1.90;;;;;;;6.78;68.49;102025.00;4974199;28;20023;-76
2022/02/10 16:32:27;;;;;;;6.57;1.95;;;;;;;6.74;68.37;102015.53;4974049;28;20049;-75
2022/02/10 16:34:52;;;;;;;19.33;2.00;;;;;;;6.72;68.25;102016.63;4984113;28;20030;-77
2022/02/10 16:37:19;;;;;;;17.77;2.53;;;;;;;6.70;68.84;102024.78;4994029;28;20085;-77
2022/02/10 16:39:45;;;;;;;9.52;1.60;;;;;;;6.62;67.35;102021.91;4993773;28;20022;-76
2022/02/10 16:42:14;;;;;;;9.70;1.50;;;;;;;6.62;66.87;102029.91;4998227;28;20451;-75
2022/02/10 16:44:40;;;;;;;18.40;1.80;;;;;;;6.61;66.93;102028.22;5014264;28;20045;-74
2022/02/10 16:47:06;;;;;;;12.90;1.80;;;;;;;6.56;66.19;102027.75;4994761;28;20038;-75
2022/02/10 16:49:32;;;;;;;15.75;2.55;;;;;;;6.53;66.87;102030.66;4991707;28;20084;-77
2022/02/10 16:51:58;;;;;;;16.50;2.40;;;;;;;6.53;67.30;102025.31;4991702;28;20256;-76
2022/02/10 16:54:34;;;;;;;22.08;3.03;;;;;;;6.49;66.35;102031.91;4985234;28;20375;-74
2022/02/10 16:57:07;;;;;;;13.43;2.40;;;;;;;6.48;66.97;102024.88;4976974;28;20135;-74
2022/02/10 16:59:43;;;;;;;13.82;2.40;;;;;;;6.44;67.68;102031.44;4972478;28;20049;-75
2022/02/10 17:19:07;;;;;;;14.23;1.90;;;;;;;6.33;67.77;102035.84;5054809;28;20044;-47
2022/02/10 17:27:08;;;;;;;13.30;2.83;;;;;;;6.33;67.80;102048.34;5062318;28;20506;-48
2022/02/10 17:32:15;;;;;;;22.30;2.58;;;;;;;6.26;68.56;102045.31;5063190;28;20043;-49
2022/02/10 17:37:30;;;;;;;18.85;2.67;;;;;;;6.21;68.77;102052.00;5067609;28;20572;-47
2022/02/10 17:43:42;;;;;;;13.68;2.70;;;;;;;6.25;69.59;102053.47;5066633;28;20068;-48
2022/02/10 17:45:53;;;;;;;13.77;2.40;;;;;;;6.21;68.76;102052.00;5060995;28;20037;-47
2022/02/10 17:53:47;;;;;;;22.83;3.05;;;;;;;6.27;69.34;102059.56;5062906;28;20116;-49
2022/02/10 17:56:13;;;;;;;17.75;2.30;;;;;;;6.27;69.40;102057.72;5064014;28;20037;-48
2022/02/10 17:58:38;;;;;;;18.85;2.45;;;;;;;6.28;70.06;102062.09;5063656;28;20056;-47
2022/02/10 18:01:05;;;;;;;14.60;2.25;;;;;;;6.30;70.63;102065.50;5063464;28;20131;-46
2022/02/10 18:03:31;;;;;;;18.67;3.03;;;;;;;6.34;70.63;102058.91;5062287;28;20106;-48
2022/02/10 18:08:36;;;;;;;12.07;1.95;;;;;;;6.35;71.72;102060.63;5062023;28;20087;-47
2022/02/10 18:11:33;;;;;;;10.02;2.50;;;;;;;6.37;71.99;102069.38;5060773;28;20039;-49
2022/02/10 18:16:37;;;;;;;13.98;3.13;;;;;;;6.42;72.79;102058.28;5058104;28;20064;-47
2022/02/10 18:19:14;;;;;;;16.30;2.78;;;;;;;6.43;73.01;102062.69;5045078;28;20033;-47
2022/02/10 18:22:08;;;;;;;22.50;2.40;;;;;;;6.38;72.75;102065.72;5047421;28;20029;-46
2022/02/10 19:05:41;;;;;;;24.00;2.90;;;;;;;6.11;73.13;102075.97;5046769;28;20052;-46
2022/02/10 19:07:37;;;;;;;14.60;2.42;;;;;;;6.12;72.37;102089.22;5048402;28;20428;-47
2022/02/10 19:10:06;;;;;;;10.57;1.88;;;;;;;6.10;73.34;102090.28;5044331;28;20102;-46
2022/02/10 19:12:42;;;;;;;15.45;1.80;;;;;;;6.07;73.05;102083.38;5040913;28;20045;-47
2022/02/10 19:15:19;;;;;;;21.52;2.50;;;;;;;6.06;72.82;102086.19;5046723;28;20616;-49
2022/02/10 19:17:45;;;;;;;19.73;3.33;;;;;;;6.06;73.08;102078.16;5033132;28;20036;-48
2022/02/10 19:20:11;;;;;;;14.93;3.58;;;;;;;6.06;72.89;102080.84;5040037;28;20037;-46
2022/02/10 19:22:37;;;;;;;13.30;3.22;;;;;;;6.02;72.91;102072.19;5041747;28;20398;-48
2022/02/10 19:25:05;;;;;;;9.18;2.17;;;;;;;5.97;73.30;102070.88;5041409;28;20044;-47
2022/02/10 19:27:31;;;;;;;16.80;2.60;;;;;;;5.96;73.60;102078.03;5042308;28;20380;-49
2022/02/10 19:29:58;;;;;;;11.35;2.13;;;;;;;5.94;72.73;102078.16;5044330;28;20025;-48
2022/02/10 19:32:27;;;;;;;13.60;2.63;;;;;;;5.96;73.17;102083.38;5037594;28;20044;-47
2022/02/10 19:34:54;;;;;;;19.98;2.22;;;;;;;5.96;72.78;102079.88;5048923;28;20475;-51
2022/02/10 19:37:19;;;;;;;17.80;2.30;;;;;;;5.98;73.24;102078.78;5046878;28;20102;-47
2022/02/10 19:39:51;;;;;;;15.80;2.47;;;;;;;5.98;72.53;102078.78;5039142;28;20131;-48
2022/02/10 19:42:17;;;;;;;13.23;2.25;;;;;;;5.98;72.80;102084.13;5044632;28;20119;-47
2022/02/10 19:44:42;;;;;;;16.42;2.58;;;;;;;6.02;72.65;102082.03;5046516;28;20421;-47
2022/02/10 19:47:07;;;;;;;20.63;2.30;;;;;;;5.97;72.41;102076.22;5044132;28;20025;-47
2022/02/10 19:49:34;;;;;;;12.13;2.30;;;;;;;5.94;71.66;102088.00;5036597;28;20115;-47
2022/02/10 19:51:59;;;;;;;13.43;2.00;;;;;;;5.93;72.09;102088.94;5038513;28;20525;-47
2022/02/10 19:54:28;;;;;;;17.48;2.30;;;;;;;5.96;72.23;102082.53;5041757;28;20028;-46
2022/02/10 19:56:56;;;;;;;14.38;2.47;;;;;;;5.97;70.75;102070.88;5036844;28;20029;-47
2022/02/10 19:59:28;;;;;;;11.85;2.10;;;;;;;6.02;71.24;102074.88;5041732;28;20021;-50
2022/02/10 20:01:54;;;;;;;16.15;2.38;;;;;;;6.04;70.84;102082.78;5038679;28;20164;-45
2022/02/10 20:04:21;;;;;;;7.70;2.40;;;;;;;6.06;70.92;102081.69;5045152;28;20111;-47
2022/02/10 20:06:47;;;;;;;15.63;2.83;;;;;;;6.07;69.08;102078.03;5046716;28;20045;-48
2022/02/10 20:09:13;;;;;;;22.25;2.45;;;;;;;6.09;69.17;102091.28;5047152;28;20028;-48
2022/02/10 20:11:39;;;;;;;19.10;2.95;;;;;;;6.10;69.92;102092.97;5044604;28;20032;-48
2022/02/10 20:14:04;;;;;;;17.15;2.20;;;;;;;6.10;69.76;102068.91;5045014;28;20034;-47
2022/02/10 20:16:29;;;;;;;19.85;2.70;;;;;;;6.07;68.52;102077.19;5041046;28;20115;-48
2022/02/10 20:18:55;;;;;;;12.30;1.88;;;;;;;6.04;68.72;102067.59;5042818;28;20037;-49
2022/02/10 20:21:20;;;;;;;21.23;2.30;;;;;;;6.00;68.68;102082.16;5043264;28;20162;-50
2022/02/10 20:23:46;;;;;;;19.48;2.00;;;;;;;5.99;68.73;102083.13;5047961;28;20033;-46
2022/02/10 20:26:13;;;;;;;19.17;2.50;;;;;;;5.99;68.45;102082.28;5045189;28;20037;-48
2022/02/10 20:28:39;;;;;;;18.80;2.53;;;;;;;5.96;69.46;102090.56;5042629;28;20453;-48
2022/02/10 20:31:04;;;;;;;22.88;2.42;;;;;;;5.90;69.37;102087.38;5045672;28;20059;-48
2022/02/10 20:33:31;;;;;;;16.10;1.80;;;;;;;5.90;69.15;102100.72;5044384;28;20399;-50
2022/02/10 20:35:59;;;;;;;17.13;1.92;;;;;;;5.88;69.73;102094.66;5043944;28;20039;-49
2022/02/10 20:38:25;;;;;;;9.15;2.15;;;;;;;5.87;69.77;102100.97;5047510;28;20071;-48
2022/02/10 20:40:59;;;;;;;12.55;2.78;;;;;;;5.85;69.13;102100.22;5046697;28;20048;-47
2022/02/10 20:43:25;;;;;;;15.77;2.35;;;;;;;5.83;69.38;102104.00;5043943;28;20033;-50
2022/02/10 20:45:57;;;;;;;12.55;2.08;;;;;;;5.80;68.65;102101.56;5037139;28;20060;-48
2022/02/10 20:48:23;;;;;;;20.90;2.33;;;;;;;5.77;68.33;102101.81;5047876;28;20040;-47
2022/02/10 20:50:54;;;;;;;21.75;2.85;;;;;;;5.75;68.14;102109.94;5042940;28;20107;-47
2022/02/10 20:53:19;;;;;;;18.52;2.15;;;;;;;5.80;67.84;102102.41;5036287;28;20126;-48
2022/02/10 20:55:45;;;;;;;11.80;1.98;;;;;;;5.75;67.71;102096.56;5036559;28;20026;-47
2022/02/10 20:58:10;;;;;;;20.52;2.65;;;;;;;5.73;68.16;102101.19;5045596;28;20091;-49
2022/02/10 21:00:35;;;;;;;23.23;2.15;;;;;;;5.70;68.24;102102.28;5041786;28;20029;-47
2022/02/10 21:03:01;;;;;;;17.88;2.67;;;;;;;5.64;67.41;102092.06;5038433;28;20028;-49
2022/02/10 21:05:38;;;;;;;18.95;2.00;;;;;;;5.61;67.11;102092.31;5042795;28;20029;-46
2022/02/10 21:10:29;;;;;;;19.13;2.90;;;;;;;5.63;67.18;102093.03;5045810;28;20445;-47
2022/02/10 21:12:55;;;;;;;13.35;3.08;;;;;;;5.62;66.74;102093.16;5039701;28;20480;-47
2022/02/10 21:15:26;;;;;;;17.35;2.22;;;;;;;5.60;67.32;102082.59;5042496;28;20026;-48
2022/02/10 21:17:57;;;;;;;20.48;2.10;;;;;;;5.57;68.14;102085.50;5047179;28;20029;-47
2022/02/10 21:20:25;;;;;;;21.02;2.20;;;;;;;5.55;67.89;102073.22;5046151;28;20041;-46
2022/02/10 21:22:59;;;;;;;15.32;1.92;;;;;;;5.53;68.31;102077.84;5047015;28;20033;-45
2022/02/10 21:25:25;;;;;;;18.85;2.08;;;;;;;5.48;68.69;102071.03;5048181;28;20104;-46
2022/02/10 21:27:53;;;;;;;22.50;3.20;;;;;;;5.45;68.79;102065.94;5043004;28;20132;-46
2022/02/10 21:30:20;;;;;;;14.65;2.33;;;;;;;5.45;69.23;102071.28;5042896;28;20479;-48
2022/02/10 21:32:55;;;;;;;12.18;1.92;;;;;;;5.45;69.29;102070.41;5037574;28;20044;-48
2022/02/10 21:37:56;;;;;;;16.15;2.00;;;;;;;5.44;69.20;102082.06;5042767;28;20060;-49
2022/02/10 21:41:12;;;;;;;25.88;2.03;;;;;;;5.42;69.55;102078.66;5048098;28;20449;-47
2022/02/10 21:54:37;;;;;;;19.60;2.45;;;;;;;5.45;69.93;102076.63;5051594;28;20044;-47
2022/02/10 21:57:26;;;;;;;28.10;2.15;;;;;;;5.44;69.33;102074.91;5049129;28;20072;-47
2022/02/10 22:20:43;;;;;;;13.40;1.83;;;;;;;5.61;68.88;102086.09;5052036;28;20128;-47
2022/02/10 22:23:17;;;;;;;12.63;1.77;;;;;;;5.59;68.81;102088.06;5046890;28;20453;-47
2022/02/10 22:25:42;;;;;;;18.52;2.47;;;;;;;5.59;68.52;102090.72;5050097;28;20103;-48
2022/02/10 22:28:22;;;;;;;18.88;2.35;;;;;;;5.58;68.65;102083.66;5048190;28;20471;-48
2022/02/10 22:30:55;;;;;;;19.15;1.80;;;;;;;5.56;68.81;102083.81;5050097;28;20075;-51
2022/02/10 22:33:34;;;;;;;23.15;1.85;;;;;;;5.53;67.94;102085.84;5046138;28;20116;-46
2022/02/10 22:36:01;;;;;;;14.57;1.70;;;;;;;5.50;67.60;102084.25;5043084;28;20116;-47
2022/02/10 22:38:26;;;;;;;24.88;1.95;;;;;;;5.52;68.03;102087.66;5034046;28;20017;-47
2022/02/10 22:43:20;;;;;;;19.23;2.00;;;;;;;5.48;68.49;102092.41;5038984;28;20059;-49
2022/02/10 22:45:45;;;;;;;15.77;2.15;;;;;;;5.43;68.33;102078.56;5050640;28;20021;-47
2022/02/10 22:48:10;;;;;;;19.60;3.75;;;;;;;5.43;68.41;102078.56;5035917;28;20033;-50
2022/02/10 22:50:35;;;;;;;15.20;1.85;;;;;;;5.39;67.76;102087.75;5039499;28;20029;-49
2022/02/10 22:53:01;;;;;;;16.50;2.67;;;;;;;5.38;67.56;102088.75;5051235;28;20041;-48
2022/02/10 22:55:26;;;;;;;28.63;2.00;;;;;;;5.39;68.55;102090.44;5047417;28;20029;-47
2022/02/10 22:57:51;;;;;;;29.55;3.03;;;;;;;5.37;69.28;102095.06;5038241;28;20033;-48
2022/02/10 23:00:29;;;;;;;23.95;2.10;;;;;;;5.34;70.67;102092.59;5044462;28;20086;-47
2022/02/10 23:02:55;;;;;;;20.30;1.90;;;;;;;5.34;70.13;102092.59;5036574;28;20029;-48
2022/02/10 23:05:21;;;;;;;22.60;2.55;;;;;;;5.39;69.34;102100.25;5047310;28;20032;-48
2022/02/10 23:07:49;;;;;;;12.80;1.90;;;;;;;5.37;69.71;102103.06;5051023;28;20052;-48
2022/02/10 23:12:58;;;;;;;21.90;2.65;;;;;;;5.44;70.56;102106.09;5039928;28;20534;-47
2022/02/10 23:15:23;;;;;;;25.15;2.15;;;;;;;5.43;70.58;102102.59;5049041;28;20029;-47
2022/02/10 23:17:48;;;;;;;25.73;2.80;;;;;;;5.44;71.03;102100.75;5052804;28;20039;-47
2022/02/10 23:20:14;;;;;;;25.80;2.80;;;;;;;5.46;70.77;102099.69;5048159;28;20362;-47
2022/02/10 23:22:39;;;;;;;16.55;2.33;;;;;;;5.51;70.93;102096.66;5043714;28;20536;-47
2022/02/10 23:25:05;;;;;;;22.58;3.17;;;;;;;5.56;70.24;102098.97;5043754;28;20434;-47
2022/02/10 23:27:30;;;;;;;34.10;2.85;;;;;;;5.56;70.71;102104.31;5051615;28;20487;-46
2022/02/10 23:29:55;;;;;;;27.27;3.63;;;;;;;5.59;70.78;102101.41;5038213;28;20065;-48
2022/02/10 23:32:20;;;;;;;26.63;2.38;;;;;;;5.64;71.17;102097.41;5033435;28;20472;-46
2022/02/10 23:34:46;;;;;;;23.70;2.88;;;;;;;5.65;70.55;102098.25;5047527;28;20112;-48
2022/02/10 23:37:12;;;;;;;22.27;3.10;;;;;;;5.68;70.50;102100.69;5046417;28;20120;-48
2022/02/10 23:39:39;;;;;;;20.90;2.22;;;;;;;5.66;70.39;102105.28;5047230;28;20387;-46
2022/02/10 23:42:11;;;;;;;22.85;2.97;;;;;;;5.65;70.47;102107.13;5037340;28;20060;-47
2022/02/10 23:44:41;;;;;;;20.92;2.38;;;;;;;5.63;70.91;102113.53;5036221;28;20029;-48
2022/02/10 23:47:08;;;;;;;21.85;2.85;;;;;;;5.63;71.31;102127.75;5034359;28;20033;-47
2022/02/10 23:49:36;;;;;;;23.87;2.70;;;;;;;5.66;71.45;102121.31;5033204;28;20033;-47
2022/02/10 23:52:06;;;;;;;25.45;2.60;;;;;;;5.72;71.14;102115.53;5036061;28;20060;-47
2022/02/10 23:54:40;;;;;;;30.58;3.60;;;;;;;5.70;71.39;102120.13;5049944;28;20033;-46
